Terminal Aerodrome Forecast
Issued by NWS

Home | Current Version | Previous Version | Text Only | Print | Product List | Glossary On
Versions: 1 2 3 4 5 6 7 8 9 10 11 12 13 14 15 16 17 18 19
000
FTUS43 KDLH 241100 RRA
TAFBRD
TAF
KBRD 241140Z 2412/2512 14007KT P6SM VCSH SCT035 OVC050
     FM241500 12010G17KT P6SM -RA OVC035
     FM242100 11009KT 4SM -RA BR OVC015
     FM250600 08006KT P6SM OVC007=

USA.gov is the U.S. government's official web portal to all federal, state and local government web resources and services.